Time;durP1;ratioP1;P1;durP2;ratioP2;P2;SDS_P1;SDS_P2;PMS_P1;PMS_P2;Temp;Humidity;BMP_temperature;BMP_pressure;BME280_temperature;BME280_humidity;BME280_pressure;Samples;Min_cycle;Max_cycle;Signal;HPM_P1;HPM_P2
2023/09/25 00:00:19;;;;;;;;;;;23.70;65.60;;;;;;5089052;27;43492;-80
2023/09/25 00:02:45;;;;;;;;;;;23.70;65.40;;;;;;5076305;27;43004;-78
2023/09/25 00:05:10;;;;;;;;;;;23.60;65.10;;;;;;5082822;27;43891;-77
2023/09/25 00:07:36;;;;;;;;;;;23.90;65.80;;;;;;5092982;27;42983;-77
2023/09/25 00:10:02;;;;;;;;;;;23.70;65.40;;;;;;5089732;27;43033;-78
2023/09/25 00:12:28;;;;;;;;;;;23.70;65.10;;;;;;5092486;27;42841;-78
2023/09/25 00:14:53;;;;;;;;;;;23.70;65.00;;;;;;5085725;27;42884;-77
2023/09/25 00:17:19;;;;;;;;;;;23.90;65.80;;;;;;5092683;27;43346;-78
2023/09/25 00:19:44;;;;;;;;;;;23.70;65.60;;;;;;5090077;27;42893;-78
2023/09/25 00:22:10;;;;;;;;;;;23.70;65.50;;;;;;5092891;27;43415;-79
2023/09/25 00:24:35;;;;;;;;;;;23.90;65.70;;;;;;5090221;27;43042;-78
2023/09/25 00:27:01;;;;;;;;;;;23.70;65.60;;;;;;5092988;27;43051;-77
2023/09/25 00:29:26;;;;;;;;;;;23.70;65.70;;;;;;5089133;27;42984;-75
2023/09/25 00:31:52;;;;;;;;;;;23.80;65.60;;;;;;5093184;27;43036;-79
2023/09/25 00:34:18;;;;;;;;;;;23.70;65.70;;;;;;5080385;27;43316;-76
2023/09/25 00:36:44;;;;;;;;;;;23.60;65.50;;;;;;5090984;27;42920;-79
2023/09/25 00:39:09;;;;;;;;;;;23.70;65.60;;;;;;5096248;27;43008;-77
2023/09/25 00:41:35;;;;;;;;;;;23.80;65.50;;;;;;5089518;27;43264;-79
2023/09/25 00:44:00;;;;;;;;;;;23.80;65.20;;;;;;5096112;27;44311;-78
2023/09/25 00:46:26;;;;;;;;;;;23.60;65.00;;;;;;5089161;27;43129;-78
2023/09/25 00:48:52;;;;;;;;;;;23.70;65.60;;;;;;5089810;27;43178;-77
2023/09/25 00:51:18;;;;;;;;;;;23.70;65.50;;;;;;5084282;28;43075;-76
2023/09/25 00:53:45;;;;;;;;;;;23.70;65.00;;;;;;5091117;27;43562;-78
2023/09/25 00:56:10;;;;;;;;;;;23.70;65.40;;;;;;5082606;27;43749;-77
2023/09/25 00:58:36;;;;;;;;;;;23.60;65.40;;;;;;5096552;27;42976;-77
2023/09/25 01:01:02;;;;;;;;;;;23.70;65.20;;;;;;5096632;27;42977;-80
2023/09/25 01:03:28;;;;;;;;;;;23.60;65.50;;;;;;5097179;27;43041;-79
2023/09/25 01:05:53;;;;;;;;;;;23.70;65.30;;;;;;5093852;27;42894;-78
2023/09/25 01:08:19;;;;;;;;;;;23.60;65.60;;;;;;5097690;27;42937;-79
2023/09/25 01:10:46;;;;;;;;;;;23.80;65.20;;;;;;5094493;27;42944;-79
2023/09/25 01:13:11;;;;;;;;;;;23.80;65.00;;;;;;5097911;27;42858;-76
2023/09/25 01:15:38;;;;;;;;;;;23.70;65.50;;;;;;5092185;27;43313;-77
2023/09/25 01:18:03;;;;;;;;;;;23.80;65.00;;;;;;5097569;27;42985;-79
2023/09/25 01:20:29;;;;;;;;;;;23.70;65.00;;;;;;5088391;27;43568;-76
2023/09/25 01:22:54;;;;;;;;;;;23.80;65.40;;;;;;5091703;27;43010;-77
2023/09/25 01:25:21;;;;;;;;;;;23.50;65.10;;;;;;5093128;27;43025;-80
2023/09/25 01:27:47;;;;;;;;;;;23.60;65.10;;;;;;5086699;27;43100;-78
2023/09/25 01:30:13;;;;;;;;;;;23.60;65.10;;;;;;5090628;27;43211;-78
2023/09/25 01:32:39;;;;;;;;;;;23.60;65.00;;;;;;5096274;27;43731;-77
2023/09/25 01:35:05;;;;;;;;;;;23.80;65.20;;;;;;5082842;27;43031;-78
2023/09/25 01:37:31;;;;;;;;;;;23.70;64.60;;;;;;5096716;27;42989;-77
2023/09/25 01:39:56;;;;;;;;;;;23.70;64.70;;;;;;5095348;27;43023;-78
2023/09/25 01:42:22;;;;;;;;;;;23.60;65.10;;;;;;5081904;27;42898;-78
2023/09/25 01:44:47;;;;;;;;;;;23.70;65.20;;;;;;5083598;27;43292;-82
2023/09/25 01:47:13;;;;;;;;;;;23.80;64.70;;;;;;5082641;27;43552;-80
2023/09/25 01:49:38;;;;;;;;;;;23.80;65.30;;;;;;5082464;27;42961;-76
2023/09/25 01:52:07;;;;;;;;;;;23.80;64.60;;;;;;5095927;27;43106;-80
2023/09/25 01:54:33;;;;;;;;;;;23.70;65.10;;;;;;5103670;27;42873;-79
2023/09/25 01:56:58;;;;;;;;;;;23.70;64.50;;;;;;5103633;27;43090;-78
2023/09/25 01:59:24;;;;;;;;;;;23.70;64.50;;;;;;5086886;27;43020;-78
2023/09/25 02:01:49;;;;;;;;;;;23.70;64.60;;;;;;5093139;27;43516;-78
2023/09/25 02:04:14;;;;;;;;;;;22.90;64.60;;;;;;5097405;27;43151;-79
2023/09/25 02:06:40;;;;;;;;;;;23.70;65.10;;;;;;5087768;27;42981;-77
2023/09/25 02:09:06;;;;;;;;;;;23.70;64.60;;;;;;5088632;27;43008;-78
2023/09/25 02:11:31;;;;;;;;;;;23.20;64.30;;;;;;5092544;27;43344;-78
2023/09/25 02:13:57;;;;;;;;;;;23.80;65.20;;;;;;5123630;27;43335;-77
2023/09/25 02:16:22;;;;;;;;;;;23.60;65.30;;;;;;5086346;27;43849;-79
2023/09/25 02:18:47;;;;;;;;;;;23.70;64.60;;;;;;5089758;27;43428;-79
2023/09/25 02:21:13;;;;;;;;;;;23.80;65.30;;;;;;5089564;27;42952;-77
2023/09/25 02:23:39;;;;;;;;;;;23.70;65.10;;;;;;5088542;27;43117;-78
2023/09/25 02:26:04;;;;;;;;;;;23.70;65.10;;;;;;5090061;27;43021;-78
2023/09/25 02:28:30;;;;;;;;;;;23.80;64.40;;;;;;5091387;27;43048;-77
2023/09/25 02:30:55;;;;;;;;;;;23.70;65.00;;;;;;5092306;27;43562;-80
2023/09/25 02:33:21;;;;;;;;;;;23.80;65.00;;;;;;5090028;27;42874;-77
2023/09/25 02:35:46;;;;;;;;;;;23.60;64.80;;;;;;5098558;27;43735;-78
2023/09/25 02:38:12;;;;;;;;;;;23.70;64.30;;;;;;5099519;27;42880;-79
2023/09/25 02:40:38;;;;;;;;;;;23.70;64.30;;;;;;5106802;27;43135;-78
2023/09/25 02:43:03;;;;;;;;;;;23.70;64.40;;;;;;5093042;27;43075;-79
2023/09/25 02:45:29;;;;;;;;;;;23.60;64.80;;;;;;5099686;27;43594;-78
2023/09/25 02:47:55;;;;;;;;;;;23.60;64.70;;;;;;5096818;27;42889;-79
2023/09/25 02:50:20;;;;;;;;;;;23.80;64.10;;;;;;5118089;27;44345;-78
2023/09/25 02:52:46;;;;;;;;;;;23.60;64.20;;;;;;5083693;27;43330;-77
2023/09/25 02:55:12;;;;;;;;;;;23.80;64.80;;;;;;5085908;27;43811;-78
2023/09/25 02:57:37;;;;;;;;;;;23.70;64.60;;;;;;5090736;27;42981;-78
2023/09/25 03:00:12;;;;;;;;;;;23.60;64.70;;;;;;5086187;27;42950;-77
2023/09/25 03:02:38;;;;;;;;;;;23.60;64.20;;;;;;5084546;27;42965;-78
2023/09/25 03:05:05;;;;;;;;;;;23.80;64.80;;;;;;5083660;27;43240;-77
2023/09/25 03:07:31;;;;;;;;;;;23.80;64.10;;;;;;5081662;27;43053;-79
2023/09/25 03:09:56;;;;;;;;;;;23.60;64.40;;;;;;5083764;27;42994;-79
2023/09/25 03:12:22;;;;;;;;;;;23.60;64.50;;;;;;5085524;27;42906;-78
2023/09/25 03:14:47;;;;;;;;;;;23.50;64.30;;;;;;5085505;27;43079;-78
2023/09/25 03:17:13;;;;;;;;;;;23.60;64.30;;;;;;5084250;27;42927;-79
2023/09/25 03:19:38;;;;;;;;;;;23.60;64.00;;;;;;5088167;27;43085;-79
2023/09/25 03:22:04;;;;;;;;;;;23.70;63.70;;;;;;5090649;27;42993;-78
2023/09/25 03:24:30;;;;;;;;;;;23.60;64.20;;;;;;5090697;27;43351;-78
2023/09/25 03:26:55;;;;;;;;;;;23.70;64.20;;;;;;5089103;27;42708;-78
2023/09/25 03:29:21;;;;;;;;;;;23.70;64.20;;;;;;5086013;27;43061;-78
2023/09/25 03:31:46;;;;;;;;;;;23.80;64.00;;;;;;5101261;27;43042;-77
2023/09/25 03:34:12;;;;;;;;;;;23.60;63.90;;;;;;5083766;27;44116;-78
2023/09/25 03:36:37;;;;;;;;;;;23.50;63.60;;;;;;5091991;27;43039;-78
2023/09/25 03:39:04;;;;;;;;;;;23.70;63.20;;;;;;5089951;27;42925;-79
2023/09/25 03:41:29;;;;;;;;;;;23.70;63.70;;;;;;5090695;27;43197;-77
2023/09/25 03:43:55;;;;;;;;;;;23.70;63.80;;;;;;5089093;27;43064;-78
2023/09/25 03:46:20;;;;;;;;;;;23.70;63.60;;;;;;5091168;27;42989;-79
2023/09/25 03:48:46;;;;;;;;;;;23.40;64.00;;;;;;5087979;27;43142;-78
2023/09/25 03:51:11;;;;;;;;;;;23.60;63.40;;;;;;5084062;27;42944;-76
2023/09/25 03:53:36;;;;;;;;;;;23.50;63.50;;;;;;5090634;27;42987;-78
2023/09/25 03:56:02;;;;;;;;;;;23.80;63.70;;;;;;5092918;27;42910;-77
2023/09/25 03:58:28;;;;;;;;;;;23.50;63.20;;;;;;5090326;27;43512;-80
2023/09/25 04:00:53;;;;;;;;;;;23.60;63.00;;;;;;5092187;27;44067;-78
2023/09/25 04:03:19;;;;;;;;;;;23.70;63.50;;;;;;5084369;27;42965;-77
2023/09/25 04:05:45;;;;;;;;;;;23.70;62.90;;;;;;5088091;27;43161;-77
2023/09/25 04:08:10;;;;;;;;;;;23.70;63.50;;;;;;5086595;27;42944;-77
2023/09/25 04:10:36;;;;;;;;;;;23.60;63.30;;;;;;5086595;27;42898;-79
2023/09/25 04:13:02;;;;;;;;;;;23.50;62.70;;;;;;5086117;27;43801;-77
2023/09/25 04:15:27;;;;;;;;;;;23.50;63.10;;;;;;5083970;27;42980;-77
2023/09/25 04:17:53;;;;;;;;;;;23.50;63.30;;;;;;5080045;27;43014;-77
2023/09/25 04:20:25;;;;;;;;;;;23.40;63.20;;;;;;5074830;28;43249;-80
2023/09/25 04:22:55;;;;;;;;;;;23.60;60.50;;;;;;5083749;27;43026;-77
2023/09/25 04:25:21;;;;;;;;;;;23.60;61.10;;;;;;5085076;27;42964;-76
2023/09/25 04:27:54;;;;;;;;;;;23.50;62.90;;;;;;5084801;27;43654;-78
2023/09/25 04:30:20;;;;;;;;;;;23.60;61.10;;;;;;5082776;27;43089;-78
2023/09/25 04:32:46;;;;;;;;;;;23.40;63.30;;;;;;5085744;27;43340;-77
2023/09/25 04:35:12;;;;;;;;;;;23.40;62.70;;;;;;5078413;27;43021;-76
2023/09/25 04:37:41;;;;;;;;;;;22.70;62.70;;;;;;5086011;27;43242;-78
2023/09/25 04:40:14;;;;;;;;;;;23.50;63.30;;;;;;5078734;27;43099;-80
2023/09/25 04:42:41;;;;;;;;;;;23.40;62.30;;;;;;5096182;27;43119;-78
2023/09/25 04:45:12;;;;;;;;;;;23.30;63.30;;;;;;5100602;27;43265;-76
2023/09/25 04:47:38;;;;;;;;;;;23.50;62.40;;;;;;5086976;27;43178;-78
2023/09/25 04:50:05;;;;;;;;;;;23.40;63.30;;;;;;5081266;27;43105;-78
2023/09/25 04:52:31;;;;;;;;;;;23.50;62.70;;;;;;5081447;27;44097;-83
2023/09/25 04:54:57;;;;;;;;;;;23.40;63.00;;;;;;5090329;27;43194;-80
2023/09/25 04:57:23;;;;;;;;;;;23.50;62.90;;;;;;5082818;27;43127;-77
2023/09/25 04:59:48;;;;;;;;;;;23.50;62.70;;;;;;5084968;27;42878;-82
2023/09/25 05:02:13;;;;;;;;;;;23.30;62.70;;;;;;5084345;27;43117;-83
2023/09/25 05:04:39;;;;;;;;;;;23.60;63.60;;;;;;5084381;27;42868;-84
2023/09/25 05:07:04;;;;;;;;;;;23.50;62.90;;;;;;5083383;27;44000;-78
2023/09/25 05:09:30;;;;;;;;;;;23.50;63.40;;;;;;5083994;27;42942;-78
2023/09/25 05:11:56;;;;;;;;;;;23.80;63.50;;;;;;5083515;27;43278;-79
2023/09/25 05:14:22;;;;;;;;;;;23.50;63.10;;;;;;5084090;27;42966;-77
2023/09/25 05:16:47;;;;;;;;;;;23.20;63.20;;;;;;5076677;27;43373;-80
2023/09/25 05:19:13;;;;;;;;;;;23.40;62.90;;;;;;5074458;27;43314;-83
2023/09/25 05:21:39;;;;;;;;;;;23.30;61.60;;;;;;5089371;27;43320;-80
2023/09/25 05:24:04;;;;;;;;;;;23.30;61.90;;;;;;5090358;27;43049;-80
2023/09/25 05:26:34;;;;;;;;;;;23.10;61.50;;;;;;5086862;27;44373;-83
2023/09/25 05:29:00;;;;;;;;;;;23.00;62.60;;;;;;5099814;27;42932;-82
2023/09/25 05:31:25;;;;;;;;;;;23.10;62.40;;;;;;5089276;27;44020;-79
2023/09/25 05:33:51;;;;;;;;;;;23.10;62.20;;;;;;5097129;27;43046;-81
2023/09/25 05:36:16;;;;;;;;;;;23.20;62.00;;;;;;5086235;27;43181;-81
2023/09/25 05:38:42;;;;;;;;;;;23.20;62.60;;;;;;5092108;27;43026;-85
2023/09/25 05:41:07;;;;;;;;;;;23.40;62.40;;;;;;5090585;27;43734;-78
2023/09/25 05:43:33;;;;;;;;;;;23.20;62.30;;;;;;5093876;27;42892;-81
2023/09/25 05:45:58;;;;;;;;;;;23.30;61.70;;;;;;5098139;27;43775;-78
2023/09/25 05:48:24;;;;;;;;;;;23.30;62.40;;;;;;5083882;27;43225;-81
2023/09/25 05:50:50;;;;;;;;;;;23.90;62.60;;;;;;5081270;27;44887;-79
2023/09/25 05:53:15;;;;;;;;;;;23.20;62.10;;;;;;5089674;27;42888;-78
2023/09/25 05:55:41;;;;;;;;;;;23.20;62.10;;;;;;5090353;27;42932;-78
2023/09/25 05:58:07;;;;;;;;;;;23.30;62.40;;;;;;5087150;27;43041;-77
2023/09/25 06:00:34;;;;;;;;;;;23.00;61.90;;;;;;5089416;27;43697;-78
2023/09/25 06:02:59;;;;;;;;;;;23.20;62.10;;;;;;5076416;27;43011;-77
2023/09/25 06:05:25;;;;;;;;;;;23.40;62.10;;;;;;5086237;27;43345;-78
2023/09/25 06:07:50;;;;;;;;;;;23.30;62.00;;;;;;5086913;27;43070;-77
2023/09/25 06:10:18;;;;;;;;;;;23.30;62.30;;;;;;5121213;27;43863;-79
2023/09/25 06:12:44;;;;;;;;;;;23.40;62.10;;;;;;5085921;27;43040;-77
2023/09/25 06:15:09;;;;;;;;;;;23.40;62.20;;;;;;5085997;27;44952;-77
2023/09/25 06:17:36;;;;;;;;;;;23.40;61.60;;;;;;5086221;27;42922;-77
2023/09/25 06:20:02;;;;;;;;;;;23.00;61.80;;;;;;5087939;27;42956;-77
2023/09/25 06:22:27;;;;;;;;;;;23.40;62.10;;;;;;5085508;27;42960;-79
2023/09/25 06:24:53;;;;;;;;;;;23.30;62.00;;;;;;5087901;27;42930;-76
2023/09/25 06:27:18;;;;;;;;;;;23.50;61.80;;;;;;5085923;27;42900;-77
2023/09/25 06:29:44;;;;;;;;;;;23.50;61.90;;;;;;5085494;27;43465;-77
2023/09/25 06:32:10;;;;;;;;;;;23.60;61.80;;;;;;5095142;27;42985;-79
2023/09/25 06:34:35;;;;;;;;;;;23.60;62.00;;;;;;5097722;27;43435;-78
2023/09/25 06:37:01;;;;;;;;;;;23.50;61.40;;;;;;5082257;27;43098;-77
2023/09/25 06:39:27;;;;;;;;;;;23.50;62.10;;;;;;5101584;27;43026;-82
2023/09/25 06:41:52;;;;;;;;;;;23.50;62.10;;;;;;5103616;27;42957;-78
2023/09/25 06:44:19;;;;;;;;;;;23.50;62.10;;;;;;5105394;27;43736;-77
2023/09/25 06:46:45;;;;;;;;;;;23.80;62.40;;;;;;5107447;27;43023;-77
2023/09/25 06:49:11;;;;;;;;;;;23.50;62.00;;;;;;5106284;27;43460;-77
2023/09/25 06:51:36;;;;;;;;;;;23.50;62.40;;;;;;5106360;27;42877;-78
2023/09/25 06:54:02;;;;;;;;;;;23.40;62.20;;;;;;5100738;27;43029;-77
2023/09/25 06:56:27;;;;;;;;;;;23.40;62.20;;;;;;5098573;27;43107;-77
2023/09/25 06:58:53;;;;;;;;;;;23.40;61.80;;;;;;5105088;27;43439;-79
2023/09/25 07:01:20;;;;;;;;;;;23.30;62.30;;;;;;5106231;27;42946;-77
2023/09/25 07:03:45;;;;;;;;;;;23.60;62.70;;;;;;5091867;27;43489;-77
2023/09/25 07:06:11;;;;;;;;;;;23.50;62.60;;;;;;5107039;27;42978;-78
2023/09/25 07:08:38;;;;;;;;;;;23.50;62.40;;;;;;5105687;27;42907;-77
2023/09/25 07:11:03;;;;;;;;;;;23.60;62.60;;;;;;5107549;27;43027;-76
2023/09/25 07:13:29;;;;;;;;;;;23.60;62.40;;;;;;5106543;27;43477;-80
2023/09/25 07:16:04;;;;;;;;;;;23.50;62.50;;;;;;5095093;27;42917;-77
2023/09/25 07:18:30;;;;;;;;;;;23.50;60.20;;;;;;5105814;27;42929;-77
2023/09/25 07:20:55;;;;;;;;;;;23.50;62.20;;;;;;5106691;27;42926;-81
2023/09/25 07:23:22;;;;;;;;;;;23.50;62.70;;;;;;5106091;27;43422;-77
2023/09/25 07:25:47;;;;;;;;;;;23.50;62.20;;;;;;5094176;27;42898;-78
2023/09/25 07:28:13;;;;;;;;;;;23.60;62.80;;;;;;5106711;27;43269;-76
2023/09/25 07:30:44;;;;;;;;;;;23.60;63.00;;;;;;5093113;27;42920;-77
2023/09/25 07:33:10;;;;;;;;;;;23.50;60.70;;;;;;5086099;27;43518;-77
2023/09/25 07:35:36;;;;;;;;;;;23.50;63.10;;;;;;5086092;27;43052;-80
2023/09/25 07:38:02;;;;;;;;;;;23.30;62.90;;;;;;5079828;27;42859;-78
2023/09/25 07:40:27;;;;;;;;;;;23.50;63.00;;;;;;5093034;27;42947;-76
2023/09/25 07:42:53;;;;;;;;;;;23.50;63.10;;;;;;5099927;27;43336;-83
2023/09/25 07:45:22;;;;;;;;;;;23.50;63.10;;;;;;5086392;27;42795;-77
2023/09/25 07:47:48;;;;;;;;;;;23.40;63.00;;;;;;5086417;27;42894;-83
2023/09/25 07:50:14;;;;;;;;;;;23.40;62.70;;;;;;5085848;27;42911;-77
2023/09/25 07:52:40;;;;;;;;;;;23.50;63.30;;;;;;5085877;27;43080;-78
2023/09/25 07:55:10;;;;;;;;;;;23.50;62.70;;;;;;5085228;27;43157;-77
2023/09/25 07:57:39;;;;;;;;;;;23.50;62.40;;;;;;5086890;27;42949;-78
2023/09/25 08:00:34;;;;;;;;;;;23.40;63.20;;;;;;5085207;27;42997;-78
2023/09/25 08:02:56;;;;;;;;;;;23.40;62.20;;;;;;5086896;27;43425;-78
2023/09/25 08:05:22;;;;;;;;;;;23.40;63.10;;;;;;5086028;27;42926;-77
2023/09/25 08:07:51;;;;;;;;;;;23.40;63.10;;;;;;5085835;27;42918;-77
2023/09/25 08:10:17;;;;;;;;;;;23.50;60.80;;;;;;5085680;27;42970;-80
2023/09/25 08:12:43;;;;;;;;;;;23.30;63.00;;;;;;5098843;27;43209;-77
2023/09/25 08:15:09;;;;;;;;;;;23.40;63.10;;;;;;5085827;27;43218;-77
2023/09/25 08:17:34;;;;;;;;;;;23.30;62.30;;;;;;5085330;27;42947;-77
2023/09/25 08:20:00;;;;;;;;;;;23.30;62.90;;;;;;5085666;27;43149;-78
2023/09/25 08:22:26;;;;;;;;;;;23.50;63.00;;;;;;5085466;27;42867;-81
2023/09/25 08:24:51;;;;;;;;;;;23.50;62.80;;;;;;5099074;27;42884;-78
2023/09/25 08:27:18;;;;;;;;;;;23.40;62.90;;;;;;5085383;27;43012;-83
2023/09/25 08:29:45;;;;;;;;;;;23.40;62.30;;;;;;5117944;27;43182;-77
2023/09/25 08:32:11;;;;;;;;;;;23.30;62.60;;;;;;5097340;27;42964;-77
2023/09/25 08:34:36;;;;;;;;;;;23.40;63.30;;;;;;5105485;27;43004;-78
2023/09/25 08:37:02;;;;;;;;;;;23.00;62.30;;;;;;5105243;27;43556;-80
2023/09/25 08:39:27;;;;;;;;;;;23.50;62.50;;;;;;5086587;27;42825;-77
2023/09/25 08:41:53;;;;;;;;;;;23.50;62.70;;;;;;5084518;27;42883;-78
2023/09/25 08:44:20;;;;;;;;;;;23.40;62.50;;;;;;5089603;27;42925;-79
2023/09/25 08:46:45;;;;;;;;;;;23.40;62.60;;;;;;5093735;27;43468;-77
2023/09/25 08:49:11;;;;;;;;;;;23.40;62.60;;;;;;5089407;27;42937;-78
2023/09/25 08:51:39;;;;;;;;;;;23.40;62.60;;;;;;5104889;27;43715;-78
2023/09/25 08:54:04;;;;;;;;;;;23.40;61.90;;;;;;5102858;27;43112;-80
2023/09/25 08:56:31;;;;;;;;;;;23.50;62.60;;;;;;5104990;27;43009;-77
2023/09/25 08:58:59;;;;;;;;;;;23.40;62.50;;;;;;5104228;27;43056;-77
2023/09/25 09:01:24;;;;;;;;;;;23.40;62.50;;;;;;5104954;27;43643;-81
2023/09/25 09:03:50;;;;;;;;;;;23.40;61.90;;;;;;5104613;27;42902;-77
2023/09/25 09:06:16;;;;;;;;;;;23.50;61.90;;;;;;5104582;27;43768;-78
2023/09/25 09:08:46;;;;;;;;;;;23.40;62.40;;;;;;5103911;27;42940;-77
2023/09/25 09:11:12;;;;;;;;;;;23.50;62.60;;;;;;5091925;27;42865;-78
2023/09/25 09:13:44;;;;;;;;;;;23.40;62.50;;;;;;5104679;27;42887;-77
2023/09/25 09:16:13;;;;;;;;;;;23.40;60.10;;;;;;5104015;27;42986;-77
2023/09/25 09:18:39;;;;;;;;;;;23.60;60.20;;;;;;5097001;27;43015;-77
2023/09/25 09:21:04;;;;;;;;;;;23.40;62.40;;;;;;5098814;27;43034;-80
2023/09/25 09:23:40;;;;;;;;;;;23.40;61.90;;;;;;5097212;27;42962;-82
2023/09/25 09:26:07;;;;;;;;;;;23.30;60.10;;;;;;5097259;27;43057;-81
2023/09/25 09:28:32;;;;;;;;;;;23.40;62.40;;;;;;5084346;27;43003;-76
2023/09/25 09:31:02;;;;;;;;;;;23.40;62.30;;;;;;5086233;27;42835;-79
2023/09/25 09:33:30;;;;;;;;;;;23.60;60.10;;;;;;5104947;27;42911;-77
2023/09/25 09:35:56;;;;;;;;;;;23.50;60.10;;;;;;5101174;27;42995;-81
2023/09/25 09:38:22;;;;;;;;;;;23.30;61.80;;;;;;5095076;27;43010;-77
2023/09/25 09:40:48;;;;;;;;;;;23.70;62.50;;;;;;5100172;27;43046;-78
2023/09/25 09:43:13;;;;;;;;;;;23.50;62.20;;;;;;5104430;27;42787;-80
2023/09/25 09:45:39;;;;;;;;;;;23.50;62.20;;;;;;5101207;27;43343;-79
2023/09/25 09:48:06;;;;;;;;;;;23.60;61.60;;;;;;5093196;27;42899;-77
2023/09/25 09:50:33;;;;;;;;;;;23.50;61.90;;;;;;5104196;27;43069;-83
2023/09/25 09:52:59;;;;;;;;;;;23.50;62.00;;;;;;5104692;27;43080;-77
2023/09/25 09:55:27;;;;;;;;;;;23.40;61.90;;;;;;5102786;27;42900;-77
2023/09/25 09:57:54;;;;;;;;;;;23.40;61.80;;;;;;5103518;27;42941;-78
2023/09/25 10:00:20;;;;;;;;;;;23.50;61.30;;;;;;5102463;27;43629;-83
2023/09/25 10:02:46;;;;;;;;;;;23.60;61.80;;;;;;5103977;27;42870;-77
2023/09/25 10:05:17;;;;;;;;;;;23.40;61.00;;;;;;5090051;27;42882;-81
2023/09/25 10:08:01;;;;;;;;;;;23.50;61.70;;;;;;5104302;27;42930;-80
2023/09/25 10:10:26;;;;;;;;;;;23.30;59.20;;;;;;5102668;27;43558;-81
2023/09/25 10:12:56;;;;;;;;;;;23.40;60.90;;;;;;5102541;27;42995;-78
2023/09/25 10:15:23;;;;;;;;;;;23.50;61.30;;;;;;5103384;27;43216;-78
2023/09/25 10:17:48;;;;;;;;;;;23.50;61.30;;;;;;5103572;27;43053;-81
2023/09/25 10:20:33;;;;;;;;;;;22.70;60.80;;;;;;5107353;27;43480;-82
2023/09/25 10:23:02;;;;;;;;;;;23.40;59.10;;;;;;5101799;27;43035;-82
2023/09/25 10:25:30;;;;;;;;;;;23.50;61.90;;;;;;5098861;27;42930;-82
2023/09/25 10:27:56;;;;;;;;;;;23.40;61.00;;;;;;5106084;27;43022;-78
2023/09/25 10:30:22;;;;;;;;;;;23.50;61.10;;;;;;5096143;27;42775;-76
2023/09/25 10:32:52;;;;;;;;;;;23.50;61.00;;;;;;5104414;27;42967;-77
2023/09/25 10:35:36;;;;;;;;;;;23.50;58.90;;;;;;5096844;27;43007;-83
2023/09/25 10:38:09;;;;;;;;;;;23.60;58.90;;;;;;5107389;27;42831;-77
2023/09/25 10:40:36;;;;;;;;;;;23.60;58.80;;;;;;5092783;27;43286;-82
2023/09/25 10:43:02;;;;;;;;;;;23.50;60.70;;;;;;5086578;27;42988;-78
2023/09/25 10:45:27;;;;;;;;;;;23.60;60.80;;;;;;5087709;27;43052;-77
2023/09/25 10:47:53;;;;;;;;;;;23.70;60.80;;;;;;5087494;28;42911;-81
2023/09/25 10:50:18;;;;;;;;;;;23.50;60.00;;;;;;5087450;27;43074;-78
2023/09/25 10:52:44;;;;;;;;;;;23.60;60.40;;;;;;5086410;27;43619;-77
2023/09/25 10:55:09;;;;;;;;;;;23.50;60.50;;;;;;5086147;27;43075;-78
2023/09/25 10:57:36;;;;;;;;;;;23.50;59.90;;;;;;5119743;27;42949;-79
2023/09/25 11:00:09;;;;;;;;;;;23.60;60.50;;;;;;5100346;27;44344;-81
2023/09/25 11:02:35;;;;;;;;;;;23.50;59.90;;;;;;5107324;27;42988;-77
2023/09/25 11:05:03;;;;;;;;;;;23.50;60.30;;;;;;5104621;27;43586;-77
2023/09/25 11:07:29;;;;;;;;;;;23.40;58.10;;;;;;5084135;27;43647;-81
2023/09/25 11:09:55;;;;;;;;;;;23.60;60.30;;;;;;5087619;27;42972;-80
2023/09/25 11:12:21;;;;;;;;;;;23.60;60.30;;;;;;5105575;27;42947;-77
2023/09/25 11:14:46;;;;;;;;;;;23.50;60.20;;;;;;5105233;27;42895;-82
2023/09/25 11:17:13;;;;;;;;;;;23.60;60.40;;;;;;5098256;27;42996;-82
2023/09/25 11:19:43;;;;;;;;;;;23.50;60.00;;;;;;5087607;27;44273;-75
2023/09/25 11:22:09;;;;;;;;;;;23.40;60.50;;;;;;5105304;27;42925;-77
2023/09/25 11:24:34;;;;;;;;;;;23.50;60.00;;;;;;5104783;27;43877;-76
2023/09/25 11:27:06;;;;;;;;;;;23.50;60.00;;;;;;5096273;27;42906;-77
2023/09/25 11:29:31;;;;;;;;;;;23.60;60.00;;;;;;5085762;27;43099;-81
2023/09/25 11:31:58;;;;;;;;;;;23.70;59.40;;;;;;5093965;27;42966;-78
2023/09/25 11:34:24;;;;;;;;;;;23.50;59.40;;;;;;5105146;27;42803;-76
2023/09/25 11:36:49;;;;;;;;;;;23.60;59.40;;;;;;5105656;27;42901;-80
2023/09/25 11:39:15;;;;;;;;;;;23.40;59.70;;;;;;5105279;27;43442;-80
2023/09/25 11:41:41;;;;;;;;;;;23.60;59.80;;;;;;5105669;27;42974;-80
2023/09/25 11:44:07;;;;;;;;;;;23.50;59.80;;;;;;5104972;27;43077;-78
2023/09/25 11:46:32;;;;;;;;;;;23.40;59.50;;;;;;5106321;27;42939;-78
2023/09/25 11:48:58;;;;;;;;;;;23.70;59.70;;;;;;5105013;27;43521;-77
2023/09/25 11:51:23;;;;;;;;;;;23.40;59.20;;;;;;5094354;27;43281;-77
2023/09/25 11:53:49;;;;;;;;;;;23.60;59.70;;;;;;5094639;27;43383;-77
2023/09/25 11:56:15;;;;;;;;;;;23.60;59.70;;;;;;5080619;27;42925;-83
2023/09/25 11:58:40;;;;;;;;;;;23.60;59.20;;;;;;5085023;27;43423;-76
2023/09/25 12:01:06;;;;;;;;;;;23.50;59.10;;;;;;5099289;27;42899;-79
2023/09/25 12:03:38;;;;;;;;;;;23.20;59.40;;;;;;5084762;27;43103;-80
2023/09/25 12:06:07;;;;;;;;;;;23.50;59.20;;;;;;5081884;27;42998;-77
2023/09/25 12:08:35;;;;;;;;;;;23.60;57.70;;;;;;5081281;27;44207;-80
2023/09/25 12:11:00;;;;;;;;;;;23.50;58.10;;;;;;5089167;27;43001;-79
2023/09/25 12:13:26;;;;;;;;;;;23.50;59.30;;;;;;5084009;27;42943;-80
2023/09/25 12:15:51;;;;;;;;;;;23.50;59.80;;;;;;5091095;27;42942;-79
2023/09/25 12:18:17;;;;;;;;;;;23.50;59.30;;;;;;5089726;27;43336;-79
2023/09/25 12:20:43;;;;;;;;;;;23.50;59.70;;;;;;5079030;27;43022;-77
2023/09/25 12:23:09;;;;;;;;;;;23.60;59.90;;;;;;5088912;27;42976;-78
2023/09/25 12:25:35;;;;;;;;;;;23.70;59.90;;;;;;5079840;27;42928;-79
2023/09/25 12:28:00;;;;;;;;;;;23.40;59.70;;;;;;5087806;27;42860;-80
2023/09/25 12:30:26;;;;;;;;;;;23.60;59.90;;;;;;5078227;27;42956;-77
2023/09/25 12:32:51;;;;;;;;;;;23.60;59.40;;;;;;5083410;27;42756;-78
2023/09/25 12:35:18;;;;;;;;;;;23.50;59.90;;;;;;5084039;27;43055;-78
2023/09/25 12:37:44;;;;;;;;;;;23.70;59.90;;;;;;5084855;27;42919;-77
2023/09/25 12:40:10;;;;;;;;;;;23.50;59.60;;;;;;5086445;27;42937;-80
2023/09/25 12:42:36;;;;;;;;;;;23.60;59.00;;;;;;5087178;27;43057;-77
2023/09/25 12:45:04;;;;;;;;;;;23.50;59.70;;;;;;5085340;27;43167;-79
2023/09/25 12:47:30;;;;;;;;;;;23.60;59.20;;;;;;5088761;27;43798;-77
2023/09/25 12:49:55;;;;;;;;;;;23.60;59.80;;;;;;5088969;27;43103;-79
2023/09/25 12:52:21;;;;;;;;;;;23.50;59.50;;;;;;5086678;27;42965;-79
2023/09/25 12:54:48;;;;;;;;;;;23.60;59.50;;;;;;5090194;27;42961;-77
2023/09/25 12:57:15;;;;;;;;;;;23.60;59.10;;;;;;5087583;27;43069;-80
2023/09/25 12:59:40;;;;;;;;;;;23.50;59.50;;;;;;5086054;27;42917;-76
2023/09/25 13:02:06;;;;;;;;;;;23.50;59.00;;;;;;5093706;27;43511;-80
2023/09/25 13:04:32;;;;;;;;;;;23.50;59.50;;;;;;5093314;27;42986;-78
2023/09/25 13:06:58;;;;;;;;;;;23.40;59.40;;;;;;5094195;27;43848;-78
2023/09/25 13:09:24;;;;;;;;;;;23.50;59.50;;;;;;5084039;27;42854;-78
2023/09/25 13:11:50;;;;;;;;;;;23.50;59.00;;;;;;5100750;27;43350;-78
2023/09/25 13:14:16;;;;;;;;;;;23.50;59.50;;;;;;5103800;27;42948;-77
2023/09/25 13:16:43;;;;;;;;;;;23.50;59.30;;;;;;5087303;27;43003;-76
2023/09/25 13:19:08;;;;;;;;;;;23.60;59.50;;;;;;5091534;27;42937;-77
2023/09/25 13:21:34;;;;;;;;;;;23.40;59.00;;;;;;5093183;27;43521;-77
2023/09/25 13:23:59;;;;;;;;;;;23.60;59.60;;;;;;5094026;27;42920;-80
2023/09/25 13:26:26;;;;;;;;;;;23.70;59.60;;;;;;5084243;27;43001;-79
2023/09/25 13:28:52;;;;;;;;;;;23.60;59.50;;;;;;5084864;27;43053;-78
2023/09/25 13:31:17;;;;;;;;;;;23.60;59.10;;;;;;5083062;27;44126;-78
2023/09/25 13:33:43;;;;;;;;;;;23.50;59.60;;;;;;5081960;27;43049;-79
2023/09/25 13:36:08;;;;;;;;;;;23.60;59.00;;;;;;5079276;27;43034;-77
2023/09/25 13:38:34;;;;;;;;;;;23.50;59.50;;;;;;5086769;27;43733;-78
2023/09/25 13:40:59;;;;;;;;;;;23.60;59.30;;;;;;5084459;27;43440;-77
2023/09/25 13:43:27;;;;;;;;;;;23.40;59.30;;;;;;5078479;27;42975;-80
2023/09/25 13:45:54;;;;;;;;;;;23.40;59.20;;;;;;5081542;27;43299;-77
2023/09/25 13:48:19;;;;;;;;;;;23.70;59.40;;;;;;5092790;27;42850;-79
2023/09/25 13:50:45;;;;;;;;;;;23.60;59.40;;;;;;5083472;27;43478;-78
2023/09/25 13:53:11;;;;;;;;;;;23.50;59.30;;;;;;5094999;27;43027;-81
2023/09/25 13:55:36;;;;;;;;;;;23.60;59.40;;;;;;5097580;27;42896;-79
2023/09/25 13:58:02;;;;;;;;;;;23.60;59.30;;;;;;5100847;27;42976;-80
2023/09/25 14:00:27;;;;;;;;;;;23.50;59.10;;;;;;5094495;27;42911;-79
2023/09/25 14:02:53;;;;;;;;;;;23.60;59.40;;;;;;5086528;28;43072;-79
2023/09/25 14:05:19;;;;;;;;;;;23.60;59.00;;;;;;5086411;28;43589;-79
2023/09/25 14:07:45;;;;;;;;;;;23.60;58.90;;;;;;5087005;28;42991;-80
2023/09/25 14:10:13;;;;;;;;;;;23.60;59.40;;;;;;5087716;28;42926;-77